createdAt,value
2022-09-07T00:02:23.566Z,6.05
2022-09-07T00:04:54.786Z,5.75
2022-09-07T00:07:23.988Z,5.93
2022-09-07T00:09:57.190Z,5.50
2022-09-07T00:12:31.005Z,5.90
2022-09-07T00:15:08.812Z,6.22
2022-09-07T00:17:40.413Z,6.57
2022-09-07T00:20:12.641Z,5.65
2022-09-07T00:22:43.384Z,6.43
2022-09-07T00:25:15.480Z,6.00
2022-09-07T00:27:48.571Z,6.32
2022-09-07T00:30:21.289Z,6.22
2022-09-07T00:32:51.184Z,5.68
2022-09-07T00:35:26.034Z,5.80
2022-09-07T00:37:55.896Z,6.47
2022-09-07T00:40:30.754Z,5.93
2022-09-07T00:43:00.907Z,6.22
2022-09-07T00:45:36.812Z,6.28
2022-09-07T00:48:18.970Z,6.07
2022-09-07T00:51:01.170Z,6.05
2022-09-07T00:56:05.783Z,6.47
2022-09-07T00:58:38.533Z,6.43
2022-09-07T01:01:10.695Z,5.70
2022-09-07T01:03:46.881Z,6.00
2022-09-07T01:06:22.862Z,6.10
2022-09-07T01:08:53.089Z,6.00
2022-09-07T01:11:26.985Z,6.50
2022-09-07T01:13:59.831Z,6.70
2022-09-07T01:17:14.136Z,6.90
2022-09-07T01:20:11.672Z,5.65
2022-09-07T01:23:28.790Z,5.72
2022-09-07T01:26:49.217Z,6.55
2022-09-07T01:29:38.450Z,6.37
2022-09-07T01:32:20.980Z,6.72
2022-09-07T01:34:55.925Z,6.80
2022-09-07T01:37:43.691Z,6.20
2022-09-07T01:40:44.076Z,6.55
2022-09-07T01:43:25.883Z,6.50
2022-09-07T01:45:59.453Z,6.37
2022-09-07T01:48:27.608Z,6.50
2022-09-07T01:51:03.375Z,6.32
2022-09-07T01:53:41.470Z,6.75
2022-09-07T01:56:24.071Z,6.25
2022-09-07T01:58:55.761Z,5.75
2022-09-07T02:01:39.749Z,6.30
2022-09-07T02:04:23.989Z,5.37
2022-09-07T02:06:57.456Z,6.00
2022-09-07T02:09:40.854Z,5.43
2022-09-07T02:12:40.623Z,5.47
2022-09-07T02:15:16.866Z,6.45
2022-09-07T02:17:53.028Z,5.53
2022-09-07T02:20:32.460Z,6.93
2022-09-07T02:23:04.538Z,6.30
2022-09-07T02:25:44.848Z,6.45
2022-09-07T02:28:22.900Z,6.53
2022-09-07T02:30:52.472Z,6.53
2022-09-07T02:33:22.383Z,5.78
2022-09-07T02:38:24.968Z,6.57
2022-09-07T02:40:57.589Z,6.47
2022-09-07T02:43:26.648Z,7.40
2022-09-07T02:48:49.115Z,6.45
2022-09-07T02:51:41.667Z,6.18
2022-09-07T02:54:25.622Z,6.65
2022-09-07T02:57:11.619Z,6.20
2022-09-07T03:00:01.920Z,6.12
2022-09-07T03:03:00.569Z,5.93
2022-09-07T03:05:55.678Z,6.97
2022-09-07T03:08:41.346Z,6.82
2022-09-07T03:11:17.703Z,6.65
2022-09-07T03:13:49.902Z,6.70
2022-09-07T03:16:23.653Z,6.75
2022-09-07T03:18:57.542Z,6.43
2022-09-07T03:21:33.076Z,6.80
2022-09-07T03:24:09.035Z,6.85
2022-09-07T03:26:45.384Z,6.80
2022-09-07T03:31:53.199Z,6.72
2022-09-07T03:34:24.476Z,6.65
2022-09-07T03:36:59.078Z,7.18
2022-09-07T03:39:32.067Z,6.60
2022-09-07T03:42:01.439Z,6.75
2022-09-07T03:44:32.358Z,6.93
2022-09-07T03:47:03.639Z,8.30
2022-09-07T03:49:35.014Z,7.97
2022-09-07T03:54:39.626Z,6.70
2022-09-07T03:57:12.195Z,6.25
2022-09-07T03:59:42.226Z,6.97
2022-09-07T04:02:11.087Z,7.70
2022-09-07T04:04:41.719Z,7.00
2022-09-07T04:07:10.133Z,7.00
2022-09-07T04:09:39.892Z,7.18
2022-09-07T04:12:09.487Z,7.07
2022-09-07T04:14:40.430Z,7.80
2022-09-07T04:17:10.915Z,6.70
2022-09-07T04:19:40.949Z,7.85
2022-09-07T04:22:09.703Z,7.55
2022-09-07T04:24:38.015Z,7.15
2022-09-07T04:27:07.135Z,6.68
2022-09-07T04:29:38.415Z,7.20
2022-09-07T04:32:10.513Z,7.35
2022-09-07T04:34:47.754Z,7.60
2022-09-07T04:37:18.757Z,7.12
2022-09-07T04:39:49.712Z,7.30
2022-09-07T04:42:19.389Z,7.90
2022-09-07T04:44:50.972Z,8.25
2022-09-07T04:47:20.327Z,8.40
2022-09-07T04:49:52.542Z,8.63
2022-09-07T04:52:26.034Z,8.38
2022-09-07T04:54:56.096Z,9.48
2022-09-07T04:57:26.743Z,8.02
2022-09-07T04:59:55.273Z,8.13
2022-09-07T05:02:26.776Z,9.32
2022-09-07T05:05:02.935Z,8.93
2022-09-07T05:07:33.575Z,8.73
2022-09-07T05:10:04.148Z,9.38
2022-09-07T05:12:32.905Z,8.80
2022-09-07T05:15:01.733Z,9.80
2022-09-07T05:17:32.868Z,9.20
2022-09-07T05:20:01.007Z,9.30
2022-09-07T05:22:30.117Z,9.07
2022-09-07T05:25:00.431Z,9.90
2022-09-07T05:27:32.210Z,9.75
2022-09-07T05:32:29.030Z,9.85
2022-09-07T05:35:01.959Z,9.15
2022-09-07T05:37:29.883Z,8.27
2022-09-07T05:39:59.122Z,8.48
2022-09-07T05:42:27.906Z,7.97
2022-09-07T05:44:59.076Z,7.75
2022-09-07T05:47:28.510Z,7.25
2022-09-07T05:49:57.232Z,7.18
2022-09-07T05:52:25.884Z,7.57
2022-09-07T05:55:13.404Z,6.25
2022-09-07T05:57:49.474Z,6.87
2022-09-07T06:00:21.713Z,6.75
2022-09-07T06:02:51.476Z,5.80
2022-09-07T06:06:10.675Z,5.93
2022-09-07T06:18:46.428Z,6.62
2022-09-07T06:36:52.110Z,6.18
2022-09-07T06:39:46.826Z,5.80
2022-09-07T06:49:25.849Z,6.78
2022-09-07T07:01:58.149Z,5.93
2022-09-07T07:04:40.525Z,5.85
2022-09-07T07:07:38.704Z,7.57
2022-09-07T07:10:39.722Z,7.68
2022-09-07T07:13:07.450Z,6.37
2022-09-07T07:15:37.043Z,6.55
2022-09-07T07:21:10.439Z,6.55
2022-09-07T07:23:59.584Z,6.20
2022-09-07T07:26:27.512Z,6.53
2022-09-07T07:31:45.273Z,6.40
2022-09-07T07:34:14.182Z,6.68
2022-09-07T07:36:42.573Z,7.15
2022-09-07T07:42:03.204Z,6.28
2022-09-07T07:44:34.786Z,16.23
2022-09-07T07:47:03.842Z,6.93
2022-09-07T07:49:31.971Z,5.70
2022-09-07T07:54:57.433Z,6.03
2022-09-07T07:57:49.732Z,6.97
2022-09-07T08:00:37.675Z,8.60
2022-09-07T08:06:35.131Z,7.47
2022-09-07T08:09:20.316Z,6.82
2022-09-07T08:11:56.055Z,6.12
2022-09-07T08:14:47.194Z,5.35
2022-09-07T08:17:27.461Z,5.95
2022-09-07T08:20:05.110Z,6.05
2022-09-07T08:22:35.995Z,5.62
2022-09-07T08:25:07.725Z,5.50
2022-09-07T08:27:40.197Z,5.70
2022-09-07T08:30:13.908Z,5.75
2022-09-07T08:32:47.817Z,5.87
2022-09-07T08:35:40.974Z,6.00
2022-09-07T08:38:44.796Z,5.90
2022-09-07T08:42:06.651Z,5.03
2022-09-07T08:45:06.114Z,5.75
2022-09-07T08:47:43.818Z,5.72
2022-09-07T08:50:38.335Z,5.10
2022-09-07T08:53:16.674Z,5.03
2022-09-07T08:56:00.563Z,4.60
2022-09-07T08:58:50.784Z,6.07
2022-09-07T09:01:41.599Z,5.28
2022-09-07T09:04:26.747Z,4.50
2022-09-07T09:07:15.500Z,5.43
2022-09-07T09:10:05.940Z,4.75
2022-09-07T09:13:07.789Z,4.95
2022-09-07T09:16:00.945Z,5.53
2022-09-07T09:19:00.226Z,5.00
2022-09-07T09:21:41.009Z,5.28
2022-09-07T09:24:42.110Z,4.62
2022-09-07T09:27:22.984Z,5.20
2022-09-07T09:29:58.628Z,4.95
2022-09-07T09:33:03.122Z,5.62
2022-09-07T09:35:35.345Z,4.78
2022-09-07T09:38:04.360Z,4.90
2022-09-07T09:40:34.921Z,6.05
2022-09-07T09:48:39.431Z,5.85
2022-09-07T09:53:59.322Z,5.57
2022-09-07T09:56:42.143Z,6.00
2022-09-07T10:05:29.904Z,5.28
2022-09-07T10:07:59.499Z,5.03
2022-09-07T10:10:29.811Z,5.03
2022-09-07T10:12:58.379Z,5.90
2022-09-07T10:15:40.945Z,6.20
2022-09-07T10:18:21.635Z,6.20
2022-09-07T10:20:50.318Z,5.13
2022-09-07T10:23:23.782Z,5.72
2022-09-07T10:25:52.070Z,5.60
2022-09-07T10:29:06.541Z,5.75
2022-09-07T10:31:26.320Z,5.22
2022-09-07T10:34:26.856Z,5.32
2022-09-07T10:37:14.387Z,5.30
2022-09-07T10:40:17.565Z,5.45
2022-09-07T10:46:08.424Z,5.57
2022-09-07T10:49:17.357Z,5.22
2022-09-07T10:52:16.565Z,5.50
2022-09-07T10:55:14.224Z,6.40
2022-09-07T10:58:11.249Z,5.95
2022-09-07T11:01:00.482Z,10.50
2022-09-07T11:03:50.657Z,7.40
2022-09-07T11:06:45.769Z,6.47
2022-09-07T11:09:39.115Z,9.05
2022-09-07T11:12:34.189Z,6.95
2022-09-07T11:15:07.101Z,8.07
2022-09-07T11:17:42.097Z,10.75
2022-09-07T11:20:33.480Z,11.23
2022-09-07T11:23:16.621Z,11.90
2022-09-07T11:26:12.595Z,10.50
2022-09-07T11:29:29.320Z,9.30
2022-09-07T11:31:43.072Z,14.32
2022-09-07T11:34:24.876Z,10.38
2022-09-07T11:37:18.746Z,12.18
2022-09-07T11:40:17.491Z,13.70
2022-09-07T11:43:19.076Z,13.20
2022-09-07T11:45:53.926Z,12.48
2022-09-07T11:48:30.704Z,13.30
2022-09-07T11:51:05.491Z,10.73
2022-09-07T11:53:38.139Z,11.77
2022-09-07T11:56:15.784Z,11.60
2022-09-07T11:58:56.566Z,11.45
2022-09-07T12:01:58.474Z,11.52
2022-09-07T12:05:06.671Z,11.95
2022-09-07T12:07:44.019Z,11.52
2022-09-07T12:10:15.236Z,11.15
2022-09-07T12:16:12.114Z,11.00
2022-09-07T12:18:57.315Z,12.55
2022-09-07T12:21:45.672Z,10.80
2022-09-07T12:24:45.980Z,10.88
2022-09-07T12:27:20.855Z,11.15
2022-09-07T12:29:52.598Z,11.45
2022-09-07T12:32:59.007Z,13.20
2022-09-07T12:35:27.219Z,12.27
2022-09-07T12:37:56.850Z,12.23
2022-09-07T12:40:30.511Z,12.07
2022-09-07T12:43:14.017Z,11.20
2022-09-07T12:45:42.508Z,12.77
2022-09-07T12:48:17.413Z,10.95
2022-09-07T12:51:13.658Z,11.18
2022-09-07T12:54:18.008Z,10.95
2022-09-07T13:00:20.385Z,11.20
2022-09-07T13:05:50.913Z,11.60
2022-09-07T13:08:56.034Z,10.48
2022-09-07T13:11:34.247Z,12.55
2022-09-07T13:14:09.385Z,11.65
2022-09-07T13:19:46.668Z,10.95
2022-09-07T13:22:33.543Z,10.85
2022-09-07T13:25:03.420Z,11.23
2022-09-07T13:27:53.407Z,10.35
2022-09-07T13:30:33.696Z,10.38
2022-09-07T13:33:24.657Z,7.75
2022-09-07T13:35:55.249Z,26.33
2022-09-07T13:38:24.162Z,10.40
2022-09-07T13:40:52.786Z,77.50
2022-09-07T13:43:23.933Z,7.18
2022-09-07T13:45:55.392Z,6.10
2022-09-07T13:48:37.880Z,6.68
2022-09-07T13:51:13.324Z,7.03
2022-09-07T13:53:56.430Z,7.55
2022-09-07T13:56:41.705Z,7.07
2022-09-07T13:59:31.161Z,7.80
2022-09-07T14:01:59.908Z,7.70
2022-09-07T14:04:37.871Z,7.72
2022-09-07T14:07:14.534Z,7.53
2022-09-07T14:09:43.360Z,7.57
2022-09-07T14:12:22.785Z,8.00
2022-09-07T14:15:09.468Z,7.70
2022-09-07T14:17:37.692Z,7.22
2022-09-07T14:20:07.418Z,7.35
2022-09-07T14:25:07.797Z,8.43
2022-09-07T14:27:37.124Z,9.15
2022-09-07T14:30:29.760Z,9.00
2022-09-07T14:33:05.058Z,8.75
2022-09-07T14:35:37.658Z,8.38
2022-09-07T14:41:14.447Z,9.15
2022-09-07T14:43:57.294Z,9.57
2022-09-07T14:46:34.945Z,10.20
2022-09-07T14:49:19.516Z,9.57
2022-09-07T14:51:51.051Z,9.20
2022-09-07T14:54:32.881Z,10.20
2022-09-07T14:57:28.332Z,9.52
2022-09-07T14:59:57.339Z,9.18
2022-09-07T15:02:34.633Z,9.55
2022-09-07T15:05:14.896Z,9.95
2022-09-07T15:07:51.339Z,9.50
2022-09-07T15:10:23.201Z,9.75
2022-09-07T15:12:55.247Z,11.30
2022-09-07T15:15:29.391Z,11.50
2022-09-07T15:18:25.193Z,10.95
2022-09-07T15:20:53.421Z,11.25
2022-09-07T15:23:22.269Z,11.50
2022-09-07T15:25:51.990Z,12.00
2022-09-07T15:34:19.302Z,11.63
2022-09-07T15:36:50.212Z,12.18
2022-09-07T15:39:26.959Z,11.95
2022-09-07T15:41:55.489Z,12.23
2022-09-07T15:44:28.009Z,12.75
2022-09-07T15:49:51.378Z,12.57
2022-09-07T15:52:20.332Z,12.65
2022-09-07T15:54:49.392Z,12.75
2022-09-07T16:00:07.295Z,12.40
2022-09-07T16:05:30.927Z,10.90
2022-09-07T16:11:05.791Z,11.75
2022-09-07T16:13:34.145Z,11.98
2022-09-07T16:16:05.692Z,11.90
2022-09-07T16:18:35.011Z,11.83
2022-09-07T16:21:12.295Z,10.90
2022-09-07T16:23:48.836Z,11.60
2022-09-07T16:26:19.579Z,11.55
2022-09-07T16:28:49.965Z,11.45
2022-09-07T16:31:22.026Z,11.32
2022-09-07T16:33:51.826Z,11.95
2022-09-07T16:36:23.728Z,11.07
2022-09-07T16:38:56.887Z,11.27
2022-09-07T16:41:32.223Z,10.90
2022-09-07T16:44:03.955Z,13.57
2022-09-07T16:46:35.367Z,11.43
2022-09-07T16:49:07.184Z,12.27
2022-09-07T16:51:35.478Z,11.65
2022-09-07T16:54:05.704Z,11.27
2022-09-07T16:56:39.117Z,11.73
2022-09-07T16:59:09.723Z,11.68
2022-09-07T17:01:39.581Z,11.80
2022-09-07T17:04:10.862Z,11.02
2022-09-07T17:06:41.631Z,12.25
2022-09-07T17:09:14.595Z,12.80
2022-09-07T17:11:42.939Z,13.07
2022-09-07T17:14:13.330Z,12.05
2022-09-07T17:16:41.885Z,12.50
2022-09-07T17:22:02.935Z,12.77
2022-09-07T17:24:32.335Z,12.40
2022-09-07T17:27:03.643Z,13.85
2022-09-07T17:29:37.136Z,13.77
2022-09-07T17:34:57.585Z,13.82
2022-09-07T17:37:27.183Z,13.73
2022-09-07T17:39:56.652Z,13.50
2022-09-07T17:43:38.891Z,12.85
2022-09-07T17:45:16.871Z,13.82
2022-09-07T17:47:44.788Z,14.95
2022-09-07T17:50:13.124Z,14.63
2022-09-07T17:52:45.934Z,14.85
2022-09-07T17:55:15.181Z,15.00
2022-09-07T17:57:44.169Z,14.82
2022-09-07T18:00:13.377Z,15.20
2022-09-07T18:02:43.341Z,14.80
2022-09-07T18:05:11.814Z,16.15
2022-09-07T18:07:39.907Z,15.55
2022-09-07T18:10:08.807Z,15.70
2022-09-07T18:12:37.279Z,16.42
2022-09-07T18:15:09.720Z,17.90
2022-09-07T18:17:39.778Z,18.12
2022-09-07T18:20:09.563Z,16.92
2022-09-07T18:22:37.819Z,17.42
2022-09-07T18:25:10.444Z,17.00
2022-09-07T18:27:39.814Z,19.00
2022-09-07T18:30:08.268Z,16.98
2022-09-07T18:32:37.745Z,17.40
2022-09-07T18:35:06.523Z,16.75
2022-09-07T18:37:34.587Z,17.87
2022-09-07T18:40:09.493Z,18.55
2022-09-07T18:42:40.526Z,19.08
2022-09-07T18:45:29.030Z,17.95
2022-09-07T18:47:57.807Z,17.70
2022-09-07T18:50:27.056Z,18.33
2022-09-07T18:53:04.116Z,19.25
2022-09-07T18:55:43.331Z,18.65
2022-09-07T18:58:12.840Z,17.08
2022-09-07T19:00:45.883Z,17.87
2022-09-07T19:03:15.391Z,19.58
2022-09-07T19:05:50.328Z,19.75
2022-09-07T19:08:24.281Z,18.80
2022-09-07T19:10:53.221Z,18.50
2022-09-07T19:13:23.017Z,19.55
2022-09-07T19:15:53.065Z,19.85
2022-09-07T19:18:24.508Z,18.58
2022-09-07T19:21:08.070Z,18.40
2022-09-07T19:23:37.250Z,18.92
2022-09-07T19:26:08.251Z,18.42
2022-09-07T19:28:37.522Z,20.02
2022-09-07T19:31:07.051Z,19.73
2022-09-07T19:33:39.585Z,20.00
2022-09-07T19:36:15.460Z,20.30
2022-09-07T19:38:44.827Z,19.20
2022-09-07T19:41:16.377Z,20.20
2022-09-07T19:43:47.041Z,20.73
2022-09-07T19:46:22.773Z,19.42
2022-09-07T19:48:56.514Z,22.27
2022-09-07T19:51:25.522Z,21.30
2022-09-07T19:53:55.981Z,20.47
2022-09-07T19:56:24.702Z,20.40
2022-09-07T19:58:55.687Z,20.20
2022-09-07T20:01:25.810Z,20.73
2022-09-07T20:04:05.990Z,19.90
2022-09-07T20:06:35.312Z,19.10
2022-09-07T20:09:04.881Z,19.40
2022-09-07T20:11:35.412Z,18.37
2022-09-07T20:14:05.514Z,18.98
2022-09-07T20:16:40.317Z,17.73
2022-09-07T20:19:16.251Z,19.35
2022-09-07T20:21:49.891Z,18.85
2022-09-07T20:24:23.524Z,19.45
2022-09-07T20:27:00.836Z,18.15
2022-09-07T20:29:35.905Z,18.75
2022-09-07T20:32:05.452Z,18.15
2022-09-07T20:34:34.778Z,19.62
2022-09-07T20:37:07.059Z,19.77
2022-09-07T20:39:39.344Z,18.80
2022-09-07T20:42:08.634Z,18.77
2022-09-07T20:44:38.565Z,19.00
2022-09-07T20:47:07.062Z,18.87
2022-09-07T20:49:34.930Z,19.58
2022-09-07T20:52:04.105Z,19.15
2022-09-07T20:54:32.736Z,20.52
2022-09-07T20:57:03.824Z,19.40
2022-09-07T20:59:34.280Z,19.48
2022-09-07T21:02:02.960Z,22.25
2022-09-07T21:04:33.489Z,22.45
2022-09-07T21:07:03.307Z,20.58
2022-09-07T21:09:31.239Z,19.58
2022-09-07T21:12:00.112Z,20.80
2022-09-07T21:14:28.909Z,21.62
2022-09-07T21:16:56.870Z,19.92
2022-09-07T21:19:24.721Z,18.25
2022-09-07T21:21:54.172Z,18.23
2022-09-07T21:24:23.195Z,18.62
2022-09-07T21:26:52.273Z,19.27
2022-09-07T21:29:26.705Z,19.40
2022-09-07T21:31:55.457Z,19.77
2022-09-07T21:34:25.321Z,20.65
2022-09-07T21:36:55.189Z,19.42
2022-09-07T21:39:24.009Z,19.70
2022-09-07T21:41:52.198Z,18.70
2022-09-07T21:44:21.402Z,19.62
2022-09-07T21:46:51.243Z,19.62
2022-09-07T21:49:19.349Z,19.90
2022-09-07T21:51:47.640Z,19.15
2022-09-07T21:54:18.361Z,18.90
2022-09-07T21:56:47.049Z,19.33
2022-09-07T21:59:15.684Z,19.55
2022-09-07T22:01:45.539Z,18.35
2022-09-07T22:04:15.027Z,18.73
2022-09-07T22:06:44.032Z,18.85
2022-09-07T22:09:12.278Z,19.30
2022-09-07T22:11:45.886Z,18.67
2022-09-07T22:14:20.873Z,18.85
2022-09-07T22:16:55.098Z,20.30
2022-09-07T22:19:25.729Z,19.90
2022-09-07T22:21:59.393Z,20.33
2022-09-07T22:24:31.146Z,19.80
2022-09-07T22:27:04.900Z,19.58
2022-09-07T22:29:34.367Z,19.60
2022-09-07T22:32:08.595Z,19.60
2022-09-07T22:34:40.043Z,19.08
2022-09-07T22:37:11.964Z,19.58
2022-09-07T22:39:42.637Z,18.35
2022-09-07T22:42:16.070Z,19.02
2022-09-07T22:44:48.658Z,19.10
2022-09-07T22:47:19.448Z,20.08
2022-09-07T22:49:49.779Z,19.85
2022-09-07T22:52:25.130Z,19.62
2022-09-07T22:54:55.723Z,19.02
2022-09-07T22:57:29.770Z,20.55
2022-09-07T22:59:59.831Z,19.42
2022-09-07T23:02:31.108Z,19.90
2022-09-07T23:05:07.879Z,19.95
2022-09-07T23:07:40.410Z,17.25
2022-09-07T23:12:42.318Z,16.33
2022-09-07T23:15:13.598Z,16.48
2022-09-07T23:17:46.691Z,17.30
2022-09-07T23:20:18.623Z,19.60
2022-09-07T23:22:52.203Z,19.60
2022-09-07T23:25:26.203Z,20.05
2022-09-07T23:28:03.611Z,18.95
2022-09-07T23:30:48.092Z,19.27
2022-09-07T23:33:21.247Z,19.85
2022-09-07T23:35:59.138Z,20.20
2022-09-07T23:38:36.454Z,20.00
2022-09-07T23:41:06.004Z,20.10
2022-09-07T23:43:39.132Z,19.45
2022-09-07T23:48:46.892Z,17.77
2022-09-07T23:51:24.224Z,18.25
2022-09-07T23:54:03.986Z,17.65
2022-09-07T23:56:33.564Z,18.62
2022-09-07T23:59:06.068Z,19.52
